createdAt,value
2023-03-26T00:01:05.727Z,2.10
2023-03-26T00:03:34.471Z,3.00
2023-03-26T00:06:03.537Z,2.33
2023-03-26T00:08:30.915Z,1.85
2023-03-26T00:10:58.094Z,2.60
2023-03-26T00:13:25.850Z,2.25
2023-03-26T00:15:53.092Z,1.90
2023-03-26T00:18:21.522Z,2.30
2023-03-26T00:20:48.225Z,2.10
2023-03-26T00:23:14.923Z,2.65
2023-03-26T00:25:43.410Z,1.77
2023-03-26T00:28:10.240Z,3.45
2023-03-26T00:30:36.928Z,2.13
2023-03-26T00:33:03.712Z,2.28
2023-03-26T00:35:30.399Z,2.08
2023-03-26T00:37:58.375Z,2.83
2023-03-26T00:40:25.311Z,2.00
2023-03-26T00:42:52.000Z,2.00
2023-03-26T00:45:21.369Z,2.03
2023-03-26T00:47:48.340Z,2.83
2023-03-26T00:50:17.978Z,3.00
2023-03-26T00:52:46.250Z,2.28
2023-03-26T00:55:13.513Z,3.15
2023-03-26T00:57:40.670Z,1.45
2023-03-26T01:00:11.324Z,2.28
2023-03-26T01:02:38.163Z,1.90
2023-03-26T01:05:53.220Z,1.95
2023-03-26T01:08:36.287Z,1.88
2023-03-26T01:11:16.899Z,2.35
2023-03-26T01:13:48.467Z,2.78
2023-03-26T01:16:21.362Z,1.85
2023-03-26T01:18:48.836Z,2.13
2023-03-26T01:21:23.827Z,1.90
2023-03-26T01:24:01.685Z,1.90
2023-03-26T01:26:36.537Z,2.30
2023-03-26T01:29:08.383Z,2.00
2023-03-26T01:32:09.519Z,1.70
2023-03-26T01:34:52.715Z,2.35
2023-03-26T01:37:32.632Z,2.10
2023-03-26T01:40:38.672Z,2.47
2023-03-26T01:43:43.657Z,2.17
2023-03-26T01:46:13.262Z,1.55
2023-03-26T01:48:43.066Z,1.75
2023-03-26T01:51:11.813Z,2.47
2023-03-26T01:53:44.818Z,1.70
2023-03-26T01:56:42.442Z,1.50
2023-03-26T01:59:33.909Z,2.13
2023-03-26T02:02:14.129Z,1.88
2023-03-26T02:04:55.701Z,1.63
2023-03-26T02:07:38.651Z,1.70
2023-03-26T02:10:14.788Z,1.92
2023-03-26T02:12:44.207Z,2.08
2023-03-26T02:15:12.372Z,2.28
2023-03-26T02:17:40.408Z,2.35
2023-03-26T02:20:14.330Z,1.83
2023-03-26T02:22:45.934Z,2.25
2023-03-26T02:25:18.867Z,1.80
2023-03-26T02:27:46.280Z,2.63
2023-03-26T02:30:17.444Z,2.00
2023-03-26T02:32:44.258Z,2.38
2023-03-26T02:35:12.411Z,2.75
2023-03-26T02:37:40.516Z,2.13
2023-03-26T02:40:11.373Z,2.38
2023-03-26T02:42:38.816Z,3.67
2023-03-26T02:45:06.792Z,2.28
2023-03-26T02:47:33.924Z,2.78
2023-03-26T02:50:01.508Z,3.00
2023-03-26T02:52:28.128Z,2.00
2023-03-26T02:54:54.738Z,3.33
2023-03-26T02:57:21.834Z,1.92
2023-03-26T02:59:50.437Z,2.45
2023-03-26T03:02:18.361Z,2.05
2023-03-26T03:04:45.312Z,2.60
2023-03-26T03:07:14.996Z,2.13
2023-03-26T03:09:41.774Z,2.65
2023-03-26T03:12:08.769Z,1.90
2023-03-26T03:14:35.693Z,2.58
2023-03-26T03:17:02.363Z,2.13
2023-03-26T03:19:28.981Z,2.67
2023-03-26T03:21:55.607Z,3.00
2023-03-26T03:24:23.531Z,3.03
2023-03-26T03:26:50.404Z,2.22
2023-03-26T03:29:17.426Z,2.13
2023-03-26T03:31:44.096Z,1.88
2023-03-26T03:34:10.981Z,2.38
2023-03-26T03:36:38.743Z,2.00
2023-03-26T03:39:05.419Z,2.55
2023-03-26T03:41:32.093Z,2.35
2023-03-26T03:43:59.919Z,2.67
2023-03-26T03:46:26.697Z,2.00
2023-03-26T03:48:53.361Z,2.05
2023-03-26T03:51:20.040Z,2.20
2023-03-26T03:53:47.524Z,2.03
2023-03-26T03:56:14.903Z,2.22
2023-03-26T03:58:42.327Z,2.63
2023-03-26T04:01:09.158Z,2.47
2023-03-26T04:03:39.147Z,3.17
2023-03-26T04:06:07.561Z,3.42
2023-03-26T04:08:34.869Z,4.32
2023-03-26T04:11:01.599Z,3.13
2023-03-26T04:13:28.235Z,3.00
2023-03-26T04:15:56.069Z,3.03
2023-03-26T04:18:23.444Z,3.50
2023-03-26T04:20:50.842Z,4.47
2023-03-26T04:23:19.253Z,3.45
2023-03-26T04:25:49.743Z,2.55
2023-03-26T04:28:28.777Z,3.30
2023-03-26T04:30:57.113Z,3.20
2023-03-26T04:33:25.079Z,3.90
2023-03-26T04:35:52.872Z,5.53
2023-03-26T04:38:20.408Z,2.80
2023-03-26T04:40:49.882Z,3.72
2023-03-26T04:43:18.178Z,3.25
2023-03-26T04:45:48.312Z,3.63
2023-03-26T04:48:15.049Z,3.03
2023-03-26T04:50:44.246Z,3.92
2023-03-26T04:53:19.963Z,3.30
2023-03-26T04:56:13.037Z,4.22
2023-03-26T04:58:39.887Z,3.13
2023-03-26T05:01:10.514Z,2.95
2023-03-26T05:03:39.421Z,3.17
2023-03-26T05:06:06.541Z,3.63
2023-03-26T05:08:33.219Z,2.92
2023-03-26T05:10:59.809Z,3.33
2023-03-26T05:13:26.931Z,3.33
2023-03-26T05:15:53.628Z,3.13
2023-03-26T05:18:20.609Z,3.63
2023-03-26T05:20:47.336Z,4.32
2023-03-26T05:23:14.074Z,4.00
2023-03-26T05:25:41.275Z,6.50
2023-03-26T05:28:09.076Z,6.40
2023-03-26T05:30:35.685Z,6.60
2023-03-26T05:33:02.855Z,7.47
2023-03-26T05:35:30.060Z,7.32
2023-03-26T05:37:57.593Z,6.25
2023-03-26T05:40:24.272Z,6.03
2023-03-26T05:42:51.402Z,4.90
2023-03-26T05:45:18.254Z,6.10
2023-03-26T05:47:44.908Z,7.57
2023-03-26T05:50:11.700Z,8.25
2023-03-26T05:52:38.438Z,7.10
2023-03-26T05:55:05.546Z,6.80
2023-03-26T05:57:32.489Z,6.93
2023-03-26T05:59:59.237Z,7.68
2023-03-26T06:02:25.906Z,6.63
2023-03-26T06:04:52.643Z,7.05
2023-03-26T06:07:19.946Z,6.80
2023-03-26T06:09:46.987Z,6.53
2023-03-26T06:12:14.704Z,6.88
2023-03-26T06:14:44.947Z,6.07
2023-03-26T06:17:11.912Z,6.22
2023-03-26T06:19:38.594Z,6.35
2023-03-26T06:22:05.975Z,6.05
2023-03-26T06:24:33.457Z,7.75
2023-03-26T06:27:00.287Z,6.22
2023-03-26T06:29:27.074Z,5.60
2023-03-26T06:31:53.938Z,5.85
2023-03-26T06:34:20.599Z,5.72
2023-03-26T06:36:48.851Z,6.78
2023-03-26T06:39:16.020Z,6.25
2023-03-26T06:41:42.631Z,6.72
2023-03-26T06:44:09.377Z,6.10
2023-03-26T06:46:36.037Z,6.72
2023-03-26T06:49:02.924Z,5.50
2023-03-26T06:51:29.640Z,5.85
2023-03-26T06:53:56.301Z,4.85
2023-03-26T06:56:22.942Z,5.18
2023-03-26T06:58:49.663Z,4.57
2023-03-26T07:01:16.378Z,4.85
2023-03-26T07:03:43.126Z,4.38
2023-03-26T07:06:09.953Z,4.35
2023-03-26T07:08:36.645Z,4.53
2023-03-26T07:11:03.350Z,4.97
2023-03-26T07:13:29.956Z,4.95
2023-03-26T07:15:56.659Z,4.63
2023-03-26T07:18:23.302Z,5.28
2023-03-26T07:20:50.764Z,4.65
2023-03-26T07:23:20.623Z,4.80
2023-03-26T07:25:51.889Z,4.75
2023-03-26T07:28:36.526Z,4.50
2023-03-26T07:31:23.263Z,3.92
2023-03-26T07:34:02.468Z,4.00
2023-03-26T07:37:16.953Z,5.53
2023-03-26T07:39:55.897Z,4.60
2023-03-26T07:42:23.333Z,4.15
2023-03-26T07:45:12.680Z,4.25
2023-03-26T07:47:42.057Z,4.18
2023-03-26T07:50:17.790Z,4.03
2023-03-26T07:52:47.356Z,3.35
2023-03-26T07:55:19.712Z,3.22
2023-03-26T07:58:10.779Z,2.88
2023-03-26T08:00:48.411Z,3.72
2023-03-26T08:03:42.413Z,2.63
2023-03-26T08:06:32.546Z,2.60
2023-03-26T08:09:30.357Z,2.92
2023-03-26T08:12:07.749Z,2.58
2023-03-26T08:14:50.281Z,2.10
2023-03-26T08:17:21.603Z,2.35
2023-03-26T08:19:59.173Z,2.30
2023-03-26T08:22:36.788Z,2.28
2023-03-26T08:25:12.425Z,3.40
2023-03-26T08:28:08.922Z,2.40
2023-03-26T08:30:35.870Z,2.50
2023-03-26T08:33:26.359Z,4.05
2023-03-26T08:35:53.185Z,2.35
2023-03-26T08:38:21.622Z,2.97
2023-03-26T08:41:12.338Z,2.45
2023-03-26T08:44:30.045Z,1.95
2023-03-26T08:47:11.878Z,2.25
2023-03-26T08:50:06.532Z,2.08
2023-03-26T08:53:08.021Z,3.10
2023-03-26T08:55:44.557Z,2.50
2023-03-26T08:58:35.405Z,2.42
2023-03-26T09:01:40.904Z,2.75
2023-03-26T09:04:36.816Z,1.75
2023-03-26T09:07:18.710Z,2.25
2023-03-26T09:09:57.353Z,2.90
2023-03-26T09:12:35.762Z,3.97
2023-03-26T09:15:28.674Z,2.28
2023-03-26T09:18:10.334Z,2.10
2023-03-26T09:21:03.721Z,3.08
2023-03-26T09:23:52.677Z,2.45
2023-03-26T09:26:25.416Z,2.55
2023-03-26T09:29:29.384Z,2.67
2023-03-26T09:32:15.808Z,3.40
2023-03-26T09:35:04.507Z,2.10
2023-03-26T09:37:56.828Z,2.83
2023-03-26T09:40:42.653Z,2.13
2023-03-26T09:43:27.976Z,2.20
2023-03-26T09:46:12.484Z,1.75
2023-03-26T09:49:03.766Z,2.15
2023-03-26T09:51:36.257Z,2.55
2023-03-26T09:54:12.460Z,2.13
2023-03-26T09:56:54.122Z,3.97
2023-03-26T09:59:28.226Z,2.05
2023-03-26T10:02:09.764Z,2.78
2023-03-26T10:05:13.700Z,2.83
2023-03-26T10:07:46.384Z,2.47
2023-03-26T10:10:36.283Z,2.75
2023-03-26T10:13:28.365Z,3.13
2023-03-26T10:16:13.322Z,4.18
2023-03-26T10:18:54.848Z,2.58
2023-03-26T10:21:42.476Z,2.83
2023-03-26T10:24:27.457Z,2.58
2023-03-26T10:27:09.989Z,2.08
2023-03-26T10:29:52.354Z,2.95
2023-03-26T10:32:51.991Z,2.38
2023-03-26T10:35:38.293Z,2.88
2023-03-26T10:38:16.454Z,4.03
2023-03-26T10:40:55.597Z,3.22
2023-03-26T10:44:07.313Z,3.00
2023-03-26T10:46:53.634Z,2.60
2023-03-26T10:49:26.154Z,2.60
2023-03-26T10:52:02.248Z,2.83
2023-03-26T10:54:50.026Z,2.20
2023-03-26T10:57:39.157Z,2.97
2023-03-26T11:00:25.286Z,2.40
2023-03-26T11:03:10.183Z,3.42
2023-03-26T11:05:49.048Z,2.58
2023-03-26T11:08:32.908Z,2.15
2023-03-26T11:11:08.791Z,2.28
2023-03-26T11:13:46.572Z,2.67
2023-03-26T11:16:33.421Z,2.47
2023-03-26T11:19:06.215Z,2.00
2023-03-26T11:21:51.932Z,2.00
2023-03-26T11:24:36.650Z,2.60
2023-03-26T11:27:23.754Z,2.50
2023-03-26T11:30:01.354Z,2.45
2023-03-26T11:32:40.747Z,2.08
2023-03-26T11:35:40.748Z,2.67
2023-03-26T11:38:32.624Z,2.20
2023-03-26T11:41:02.922Z,1.88
2023-03-26T11:43:37.150Z,2.17
2023-03-26T11:46:14.688Z,3.13
2023-03-26T11:49:00.414Z,2.08
2023-03-26T11:51:39.344Z,2.58
2023-03-26T11:54:12.187Z,1.98
2023-03-26T11:57:05.267Z,3.50
2023-03-26T12:00:19.459Z,1.50
2023-03-26T12:02:47.829Z,2.28
2023-03-26T12:05:16.599Z,2.33
2023-03-26T12:07:52.806Z,3.47
2023-03-26T12:10:25.197Z,2.00
2023-03-26T12:12:58.456Z,2.72
2023-03-26T12:15:26.763Z,2.67
2023-03-26T12:17:56.498Z,2.42
2023-03-26T12:20:26.243Z,2.17
2023-03-26T12:22:59.185Z,2.67
2023-03-26T12:25:28.359Z,2.20
2023-03-26T12:28:03.872Z,2.30
2023-03-26T12:30:39.596Z,1.80
2023-03-26T12:33:16.372Z,2.50
2023-03-26T12:35:43.653Z,2.20
2023-03-26T12:38:24.745Z,2.67
2023-03-26T12:44:43.050Z,1.90
2023-03-26T12:44:50.757Z,2.35
2023-03-26T12:47:57.025Z,2.33
2023-03-26T12:50:14.763Z,1.63
2023-03-26T12:53:18.004Z,2.05
2023-03-26T12:55:59.648Z,2.80
2023-03-26T12:58:35.509Z,2.40
2023-03-26T13:01:23.995Z,1.70
2023-03-26T13:03:56.604Z,1.92
2023-03-26T13:06:59.558Z,2.38
2023-03-26T13:09:40.587Z,2.20
2023-03-26T13:12:10.094Z,3.17
2023-03-26T13:14:55.628Z,2.20
2023-03-26T13:17:31.551Z,1.65
2023-03-26T13:20:24.449Z,2.38
2023-03-26T13:23:09.917Z,2.22
2023-03-26T13:25:54.368Z,1.77
2023-03-26T13:28:27.106Z,2.15
2023-03-26T13:31:21.962Z,2.17
2023-03-26T13:34:01.620Z,1.75
2023-03-26T13:37:00.082Z,2.50
2023-03-26T13:39:50.348Z,1.48
2023-03-26T13:42:37.759Z,2.10
2023-03-26T13:45:10.454Z,2.42
2023-03-26T13:47:46.338Z,1.80
2023-03-26T13:50:28.856Z,2.00
2023-03-26T13:53:27.608Z,2.30
2023-03-26T13:55:58.776Z,2.35
2023-03-26T13:58:41.872Z,2.55
2023-03-26T14:01:20.105Z,3.10
2023-03-26T14:04:20.073Z,1.88
2023-03-26T14:07:00.209Z,2.30
2023-03-26T14:09:38.994Z,1.92
2023-03-26T14:12:23.791Z,2.38
2023-03-26T14:15:21.705Z,2.40
2023-03-26T14:20:37.836Z,2.45
2023-03-26T14:23:19.303Z,3.25
2023-03-26T14:26:01.312Z,2.10
2023-03-26T14:28:43.336Z,2.75
2023-03-26T14:31:29.253Z,2.10
2023-03-26T14:34:05.411Z,2.17
2023-03-26T14:37:05.902Z,1.67
2023-03-26T14:39:41.574Z,1.85
2023-03-26T14:42:19.593Z,2.03
2023-03-26T14:45:07.886Z,2.00
2023-03-26T14:48:03.800Z,2.17
2023-03-26T14:50:54.582Z,1.45
2023-03-26T14:53:25.456Z,1.70
2023-03-26T14:56:20.846Z,2.22
2023-03-26T14:59:06.089Z,2.20
2023-03-26T15:02:11.373Z,2.33
2023-03-26T15:05:08.367Z,1.95
2023-03-26T15:08:12.484Z,1.70
2023-03-26T15:10:49.683Z,1.70
2023-03-26T15:14:07.576Z,1.83
2023-03-26T15:17:01.381Z,2.20
2023-03-26T15:19:49.781Z,2.17
2023-03-26T15:22:53.963Z,1.90
2023-03-26T15:25:32.622Z,2.75
2023-03-26T15:28:02.241Z,2.80
2023-03-26T15:31:06.589Z,2.70
2023-03-26T15:33:54.308Z,1.63
2023-03-26T15:36:30.369Z,2.03
2023-03-26T15:39:14.894Z,1.95
2023-03-26T15:42:09.706Z,1.42
2023-03-26T15:44:53.937Z,1.65
2023-03-26T15:47:47.053Z,1.98
2023-03-26T15:50:44.214Z,1.98
2023-03-26T15:53:14.636Z,1.85
2023-03-26T15:55:58.773Z,1.67
2023-03-26T15:58:31.814Z,2.25
2023-03-26T16:01:21.212Z,2.47
2023-03-26T16:03:51.353Z,1.27
2023-03-26T16:06:28.311Z,1.30
2023-03-26T16:08:56.029Z,1.20
2023-03-26T16:11:44.712Z,1.20
2023-03-26T16:14:44.974Z,1.20
2023-03-26T16:17:25.193Z,1.25
2023-03-26T16:20:32.598Z,1.92
2023-03-26T16:23:03.589Z,1.05
2023-03-26T16:25:49.926Z,1.50
2023-03-26T16:28:27.926Z,1.38
2023-03-26T16:31:36.253Z,1.63
2023-03-26T16:34:05.841Z,1.42
2023-03-26T16:36:35.799Z,1.90
2023-03-26T16:39:05.689Z,1.58
2023-03-26T16:41:46.835Z,1.60
2023-03-26T16:44:34.391Z,1.50
2023-03-26T16:47:22.165Z,1.25
2023-03-26T16:50:08.578Z,1.70
2023-03-26T16:52:58.802Z,1.83
2023-03-26T16:55:45.411Z,1.90
2023-03-26T16:58:32.753Z,1.20
2023-03-26T17:01:08.444Z,1.80
2023-03-26T17:03:45.126Z,1.80
2023-03-26T17:06:20.952Z,1.40
2023-03-26T17:09:00.444Z,1.15
2023-03-26T17:11:47.955Z,1.30
2023-03-26T17:14:56.460Z,1.52
2023-03-26T17:20:27.262Z,1.52
2023-03-26T17:23:15.653Z,2.45
2023-03-26T17:26:03.882Z,2.80
2023-03-26T17:28:49.402Z,1.77
2023-03-26T17:31:23.803Z,1.88
2023-03-26T17:33:50.776Z,1.30
2023-03-26T17:36:24.374Z,1.25
2023-03-26T17:38:59.507Z,1.50
2023-03-26T17:41:55.194Z,1.60
2023-03-26T17:44:35.960Z,1.00
2023-03-26T17:47:06.591Z,1.88
2023-03-26T17:49:35.397Z,1.10
2023-03-26T17:52:23.055Z,1.25
2023-03-26T17:54:52.399Z,1.30
2023-03-26T17:57:21.809Z,1.42
2023-03-26T17:59:52.113Z,1.23
2023-03-26T18:02:22.508Z,1.27
2023-03-26T18:04:54.033Z,1.58
2023-03-26T18:07:56.919Z,1.17
2023-03-26T18:10:52.530Z,1.50
2023-03-26T18:13:19.199Z,0.95
2023-03-26T18:15:50.854Z,1.35
2023-03-26T18:18:23.224Z,1.15
2023-03-26T18:20:51.974Z,1.40
2023-03-26T18:23:30.187Z,1.15
2023-03-26T18:26:08.101Z,0.90
2023-03-26T18:28:41.065Z,1.25
2023-03-26T18:31:26.630Z,1.55
2023-03-26T18:34:03.140Z,1.30
2023-03-26T18:36:31.572Z,1.08
2023-03-26T18:38:59.195Z,1.00
2023-03-26T18:41:41.543Z,1.15
2023-03-26T18:44:15.141Z,1.60
2023-03-26T18:46:42.588Z,2.25
2023-03-26T18:49:13.406Z,1.70
2023-03-26T18:51:54.062Z,1.70
2023-03-26T18:54:23.654Z,1.55
2023-03-26T18:56:52.418Z,1.08
2023-03-26T18:59:19.656Z,1.50
2023-03-26T19:01:48.663Z,1.80
2023-03-26T19:04:16.226Z,1.55
2023-03-26T19:06:44.140Z,1.48
2023-03-26T19:09:24.231Z,1.67
2023-03-26T19:11:57.624Z,1.60
2023-03-26T19:14:27.602Z,1.40
2023-03-26T19:17:07.022Z,1.40
2023-03-26T19:19:37.695Z,1.15
2023-03-26T19:22:06.441Z,0.82
2023-03-26T19:24:34.174Z,1.20
2023-03-26T19:27:01.312Z,0.90
2023-03-26T19:29:35.276Z,1.27
2023-03-26T19:32:32.977Z,1.35
2023-03-26T19:35:01.293Z,1.05
2023-03-26T19:37:32.677Z,0.80
2023-03-26T19:40:29.359Z,1.70
2023-03-26T19:42:58.348Z,1.48
2023-03-26T19:45:26.314Z,1.20
2023-03-26T19:48:07.542Z,1.00
2023-03-26T19:50:52.898Z,0.80
2023-03-26T19:53:32.470Z,1.30
2023-03-26T19:56:06.319Z,0.98
2023-03-26T19:58:35.260Z,1.20
2023-03-26T20:01:03.801Z,1.20
2023-03-26T20:03:38.992Z,1.30
2023-03-26T20:06:09.056Z,1.33
2023-03-26T20:08:36.168Z,1.33
2023-03-26T20:11:03.040Z,1.23
2023-03-26T20:13:31.226Z,1.48
2023-03-26T20:16:07.321Z,1.08
2023-03-26T20:18:35.239Z,1.20
2023-03-26T20:21:02.632Z,0.80
2023-03-26T20:23:29.296Z,1.52
2023-03-26T20:25:56.552Z,1.48
2023-03-26T20:28:24.596Z,1.48
2023-03-26T20:30:51.844Z,1.10
2023-03-26T20:33:22.363Z,0.90
2023-03-26T20:35:49.698Z,1.23
2023-03-26T20:38:17.120Z,1.58
2023-03-26T20:40:45.180Z,1.40
2023-03-26T20:43:14.879Z,1.38
2023-03-26T20:45:42.016Z,1.75
2023-03-26T20:48:10.628Z,1.10
2023-03-26T20:50:50.508Z,1.98
2023-03-26T20:53:19.033Z,2.08
2023-03-26T20:55:46.615Z,2.30
2023-03-26T20:58:17.846Z,1.70
2023-03-26T21:01:00.943Z,1.80
2023-03-26T21:03:28.455Z,1.98
2023-03-26T21:06:00.200Z,1.63
2023-03-26T21:08:30.292Z,2.10
2023-03-26T21:11:02.088Z,1.80
2023-03-26T21:13:45.219Z,1.52
2023-03-26T21:16:13.221Z,1.70
2023-03-26T21:18:40.326Z,1.80
2023-03-26T21:21:33.369Z,2.40
2023-03-26T21:24:19.304Z,1.95
2023-03-26T21:26:57.796Z,2.00
2023-03-26T21:29:24.729Z,2.22
2023-03-26T21:31:53.993Z,1.85
2023-03-26T21:34:22.398Z,1.52
2023-03-26T21:36:49.531Z,1.23
2023-03-26T21:39:16.499Z,1.20
2023-03-26T21:42:04.340Z,1.52
2023-03-26T21:44:33.876Z,1.70
2023-03-26T21:47:00.930Z,1.90
2023-03-26T21:49:27.979Z,1.80
2023-03-26T21:51:55.109Z,1.92
2023-03-26T21:54:28.012Z,1.38
2023-03-26T21:57:06.273Z,1.55
2023-03-26T21:59:41.832Z,1.15
2023-03-26T22:02:26.148Z,1.38
2023-03-26T22:05:16.407Z,1.45
2023-03-26T22:07:54.411Z,1.50
2023-03-26T22:10:21.134Z,1.30
2023-03-26T22:12:47.787Z,1.85
2023-03-26T22:15:14.496Z,1.65
2023-03-26T22:17:42.210Z,1.38
2023-03-26T22:20:12.978Z,1.42
2023-03-26T22:22:41.763Z,1.90
2023-03-26T22:25:10.353Z,1.70
2023-03-26T22:27:43.817Z,1.17
2023-03-26T22:30:12.988Z,1.23
2023-03-26T22:32:40.248Z,1.48
2023-03-26T22:35:07.406Z,1.85
2023-03-26T22:37:34.665Z,1.38
2023-03-26T22:40:01.363Z,1.50
2023-03-26T22:42:28.056Z,2.40
2023-03-26T22:44:54.729Z,1.40
2023-03-26T22:47:21.885Z,1.10
2023-03-26T22:49:48.568Z,2.00
2023-03-26T22:52:15.153Z,1.50
2023-03-26T22:54:42.247Z,2.15
2023-03-26T22:57:09.584Z,1.52
2023-03-26T22:59:36.748Z,1.70
2023-03-26T23:02:03.948Z,1.92
2023-03-26T23:04:32.261Z,1.30
2023-03-26T23:07:00.262Z,1.67
2023-03-26T23:09:27.011Z,1.48
2023-03-26T23:11:53.706Z,1.88
2023-03-26T23:14:20.349Z,1.70
2023-03-26T23:16:46.938Z,1.70
2023-03-26T23:19:13.820Z,1.90
2023-03-26T23:21:40.445Z,1.50
2023-03-26T23:24:07.106Z,2.40
2023-03-26T23:26:43.862Z,1.95
2023-03-26T23:29:16.629Z,2.63
2023-03-26T23:31:43.323Z,1.63
2023-03-26T23:34:10.982Z,2.08
2023-03-26T23:36:37.657Z,1.92
2023-03-26T23:39:04.857Z,2.25
2023-03-26T23:41:31.593Z,1.85
2023-03-26T23:43:58.162Z,1.83
2023-03-26T23:46:30.329Z,1.65
2023-03-26T23:49:02.203Z,1.90
2023-03-26T23:51:32.748Z,1.70
2023-03-26T23:54:00.422Z,1.73
2023-03-26T23:56:27.809Z,1.67
2023-03-26T23:58:57.255Z,1.90
